createdAt,value
2022-10-09T00:01:06.465Z,99.90
2022-10-09T00:03:34.130Z,99.90
2022-10-09T00:06:00.865Z,99.90
2022-10-09T00:08:27.998Z,99.90
2022-10-09T00:10:54.935Z,99.90
2022-10-09T00:13:21.707Z,99.90
2022-10-09T00:15:48.416Z,99.90
2022-10-09T00:18:17.773Z,99.90
2022-10-09T00:20:46.395Z,99.90
2022-10-09T00:23:16.486Z,99.90
2022-10-09T00:25:58.436Z,99.90
2022-10-09T00:28:28.484Z,99.90
2022-10-09T00:30:55.822Z,99.90
2022-10-09T00:33:22.845Z,99.90
2022-10-09T00:35:49.876Z,99.90
2022-10-09T00:38:16.773Z,99.90
2022-10-09T00:40:44.042Z,99.90
2022-10-09T00:43:16.146Z,99.90
2022-10-09T00:45:52.545Z,99.90
2022-10-09T00:48:19.965Z,99.90
2022-10-09T00:50:57.611Z,99.90
2022-10-09T00:53:28.206Z,99.90
2022-10-09T00:55:55.321Z,99.90
2022-10-09T00:58:23.511Z,99.90
2022-10-09T01:00:50.272Z,99.90
2022-10-09T01:03:17.048Z,99.90
2022-10-09T01:05:49.603Z,99.90
2022-10-09T01:08:31.629Z,99.90
2022-10-09T01:11:13.310Z,99.90
2022-10-09T01:13:50.252Z,99.90
2022-10-09T01:16:25.762Z,99.90
2022-10-09T01:19:16.698Z,99.90
2022-10-09T01:22:18.903Z,99.90
2022-10-09T01:25:00.866Z,99.90
2022-10-09T01:27:29.012Z,99.90
2022-10-09T01:30:01.796Z,99.90
2022-10-09T01:32:33.629Z,99.90
2022-10-09T01:35:01.806Z,99.90
2022-10-09T01:37:30.852Z,99.90
2022-10-09T01:39:59.283Z,99.90
2022-10-09T01:42:28.702Z,99.90
2022-10-09T01:44:55.409Z,99.90
2022-10-09T01:47:22.552Z,99.90
2022-10-09T01:49:57.329Z,99.90
2022-10-09T01:52:41.556Z,99.90
2022-10-09T01:55:23.461Z,99.90
2022-10-09T01:58:12.231Z,99.90
2022-10-09T02:00:56.527Z,99.90
2022-10-09T02:03:25.840Z,99.90
2022-10-09T02:05:53.845Z,99.90
2022-10-09T02:08:23.482Z,99.90
2022-10-09T02:10:54.066Z,99.90
2022-10-09T02:13:21.342Z,99.90
2022-10-09T02:16:02.986Z,99.90
2022-10-09T02:18:39.748Z,99.90
2022-10-09T02:21:14.991Z,99.90
2022-10-09T02:23:44.241Z,99.90
2022-10-09T02:26:12.486Z,99.90
2022-10-09T02:28:45.139Z,99.90
2022-10-09T02:31:24.936Z,99.90
2022-10-09T02:33:58.957Z,99.90
2022-10-09T02:36:26.650Z,99.90
2022-10-09T02:38:55.295Z,99.90
2022-10-09T02:41:22.436Z,99.90
2022-10-09T02:43:49.431Z,99.90
2022-10-09T02:46:16.822Z,99.90
2022-10-09T02:48:43.991Z,99.90
2022-10-09T02:51:10.722Z,99.90
2022-10-09T02:53:37.433Z,99.90
2022-10-09T02:56:04.419Z,99.90
2022-10-09T02:58:32.447Z,99.90
2022-10-09T03:00:59.371Z,99.90
2022-10-09T03:03:26.645Z,99.90
2022-10-09T03:06:12.999Z,99.90
2022-10-09T03:08:42.296Z,99.90
2022-10-09T03:11:09.999Z,99.90
2022-10-09T03:13:37.673Z,99.90
2022-10-09T03:16:06.384Z,99.90
2022-10-09T03:18:33.279Z,99.90
2022-10-09T03:21:00.085Z,99.90
2022-10-09T03:23:27.041Z,99.90
2022-10-09T03:26:02.767Z,99.90
2022-10-09T03:28:29.826Z,99.90
2022-10-09T03:30:57.127Z,99.90
2022-10-09T03:33:23.894Z,99.90
2022-10-09T03:35:50.633Z,99.90
2022-10-09T03:38:17.426Z,99.90
2022-10-09T03:40:44.879Z,99.90
2022-10-09T03:43:11.611Z,99.90
2022-10-09T03:45:42.754Z,99.90
2022-10-09T03:48:10.320Z,99.90
2022-10-09T03:50:40.907Z,99.90
2022-10-09T03:53:09.707Z,99.90
2022-10-09T03:55:36.666Z,99.90
2022-10-09T03:58:03.912Z,99.90
2022-10-09T04:00:31.026Z,99.90
2022-10-09T04:02:58.118Z,99.90
2022-10-09T04:05:25.197Z,99.90
2022-10-09T04:07:52.067Z,99.90
2022-10-09T04:10:18.919Z,99.90
2022-10-09T04:12:45.778Z,99.90
2022-10-09T04:15:12.610Z,99.90
2022-10-09T04:17:39.288Z,99.90
2022-10-09T04:20:06.347Z,99.90
2022-10-09T04:22:33.087Z,99.90
2022-10-09T04:24:59.777Z,99.90
2022-10-09T04:27:26.474Z,99.90
2022-10-09T04:29:53.197Z,99.90
2022-10-09T04:32:19.904Z,99.90
2022-10-09T04:34:46.618Z,99.90
2022-10-09T04:37:13.660Z,99.90
2022-10-09T04:39:40.621Z,99.90
2022-10-09T04:42:07.672Z,99.90
2022-10-09T04:44:34.351Z,99.90
2022-10-09T04:47:01.052Z,99.90
2022-10-09T04:49:27.791Z,99.90
2022-10-09T04:51:54.487Z,99.90
2022-10-09T04:54:21.278Z,99.90
2022-10-09T04:56:47.966Z,99.90
2022-10-09T04:59:14.780Z,99.90
2022-10-09T05:01:41.649Z,99.90
2022-10-09T05:04:08.757Z,99.90
2022-10-09T05:06:35.896Z,99.90
2022-10-09T05:09:03.023Z,99.90
2022-10-09T05:11:29.762Z,99.90
2022-10-09T05:13:58.039Z,99.90
2022-10-09T05:16:27.722Z,99.90
2022-10-09T05:18:56.662Z,99.90
2022-10-09T05:21:24.421Z,99.90
2022-10-09T05:23:52.827Z,99.90
2022-10-09T05:26:22.844Z,99.90
2022-10-09T05:28:50.301Z,99.90
2022-10-09T05:31:25.483Z,99.90
2022-10-09T05:33:52.859Z,99.90
2022-10-09T05:36:20.611Z,99.90
2022-10-09T05:38:47.610Z,99.90
2022-10-09T05:41:16.139Z,99.90
2022-10-09T05:43:46.653Z,99.90
2022-10-09T05:46:15.993Z,99.90
2022-10-09T05:48:45.149Z,99.90
2022-10-09T05:51:24.422Z,99.90
2022-10-09T05:53:51.737Z,99.90
2022-10-09T05:56:30.634Z,99.90
2022-10-09T05:59:00.256Z,99.90
2022-10-09T06:01:29.910Z,99.90
2022-10-09T06:03:58.802Z,99.90
2022-10-09T06:06:28.345Z,99.90
2022-10-09T06:08:55.922Z,99.90
2022-10-09T06:11:28.692Z,99.90
2022-10-09T06:13:56.622Z,99.90
2022-10-09T06:16:26.708Z,99.90
2022-10-09T06:18:54.889Z,99.90
2022-10-09T06:21:22.250Z,99.90
2022-10-09T06:23:50.731Z,99.90
2022-10-09T06:26:18.797Z,99.90
2022-10-09T06:28:46.169Z,99.90
2022-10-09T06:31:21.512Z,99.90
2022-10-09T06:33:49.901Z,99.90
2022-10-09T06:36:23.047Z,99.90
2022-10-09T06:38:50.573Z,99.90
2022-10-09T06:41:19.586Z,99.90
2022-10-09T06:43:56.804Z,99.90
2022-10-09T06:46:29.721Z,99.90
2022-10-09T06:48:58.078Z,99.90
2022-10-09T06:51:24.946Z,99.90
2022-10-09T06:53:53.565Z,99.90
2022-10-09T06:56:23.028Z,99.90
2022-10-09T06:58:49.878Z,99.90
2022-10-09T07:01:19.641Z,99.90
2022-10-09T07:03:52.597Z,99.90
2022-10-09T07:06:22.952Z,99.90
2022-10-09T07:08:53.232Z,99.90
2022-10-09T07:11:25.175Z,99.90
2022-10-09T07:13:55.526Z,99.90
2022-10-09T07:16:24.859Z,99.90
2022-10-09T07:18:52.074Z,99.90
2022-10-09T07:21:19.624Z,99.90
2022-10-09T07:23:46.527Z,99.90
2022-10-09T07:26:20.133Z,99.90
2022-10-09T07:28:48.076Z,99.90
2022-10-09T07:31:15.674Z,99.90
2022-10-09T07:33:42.710Z,99.90
2022-10-09T07:36:10.762Z,99.90
2022-10-09T07:38:37.757Z,99.90
2022-10-09T07:41:07.450Z,99.90
2022-10-09T07:43:38.983Z,99.90
2022-10-09T07:46:07.350Z,99.90
2022-10-09T07:48:35.513Z,99.90
2022-10-09T07:51:09.665Z,99.90
2022-10-09T07:53:36.994Z,99.90
2022-10-09T07:56:04.545Z,99.90
2022-10-09T07:58:31.753Z,99.90
2022-10-09T08:01:07.559Z,99.90
2022-10-09T08:03:35.427Z,99.90
2022-10-09T08:06:02.786Z,99.90
2022-10-09T08:08:29.532Z,99.90
2022-10-09T08:10:56.317Z,99.90
2022-10-09T08:13:23.136Z,99.90
2022-10-09T08:15:49.965Z,99.90
2022-10-09T08:18:16.814Z,99.90
2022-10-09T08:20:43.888Z,99.90
2022-10-09T08:23:10.593Z,99.90
2022-10-09T08:25:38.100Z,99.90
2022-10-09T08:28:05.208Z,99.90
2022-10-09T08:30:32.073Z,99.90
2022-10-09T08:32:58.822Z,99.90
2022-10-09T08:35:25.591Z,99.90
2022-10-09T08:37:52.518Z,99.90
2022-10-09T08:40:29.206Z,99.90
2022-10-09T08:43:04.915Z,99.90
2022-10-09T08:45:34.954Z,99.90
2022-10-09T08:48:07.517Z,99.90
2022-10-09T08:50:38.611Z,99.90
2022-10-09T08:53:08.342Z,99.90
2022-10-09T08:55:50.003Z,99.90
2022-10-09T08:58:19.332Z,99.90
2022-10-09T09:00:52.195Z,99.90
2022-10-09T09:04:01.436Z,99.90
2022-10-09T09:06:55.327Z,99.90
2022-10-09T09:09:45.323Z,99.90
2022-10-09T09:12:38.488Z,99.90
2022-10-09T09:15:26.495Z,99.90
2022-10-09T09:18:20.676Z,99.90
2022-10-09T09:20:53.325Z,99.90
2022-10-09T09:23:29.609Z,99.90
2022-10-09T09:25:58.168Z,99.90
2022-10-09T09:28:30.498Z,99.90
2022-10-09T09:31:06.650Z,99.90
2022-10-09T09:33:53.690Z,99.90
2022-10-09T09:36:33.928Z,99.90
2022-10-09T09:41:47.992Z,99.90
2022-10-09T09:44:17.253Z,99.90
2022-10-09T09:46:46.319Z,99.90
2022-10-09T09:49:21.984Z,99.90
2022-10-09T09:51:49.718Z,99.90
2022-10-09T09:54:23.518Z,99.90
2022-10-09T09:57:11.901Z,99.90
2022-10-09T09:59:43.135Z,99.90
2022-10-09T10:02:19.801Z,99.90
2022-10-09T10:04:59.931Z,99.90
2022-10-09T10:07:32.344Z,99.90
2022-10-09T10:10:13.198Z,99.90
2022-10-09T10:12:53.368Z,99.90
2022-10-09T10:15:23.705Z,99.90
2022-10-09T10:18:00.686Z,99.90
2022-10-09T10:20:29.581Z,99.90
2022-10-09T10:22:57.609Z,99.90
2022-10-09T10:25:29.945Z,99.90
2022-10-09T10:28:13.025Z,99.90
2022-10-09T10:30:41.637Z,99.90
2022-10-09T10:33:19.085Z,99.90
2022-10-09T10:35:49.542Z,99.90
2022-10-09T10:38:30.249Z,99.90
2022-10-09T10:41:42.622Z,99.90
2022-10-09T10:44:41.582Z,99.90
2022-10-09T10:47:17.572Z,99.90
2022-10-09T10:49:44.407Z,99.90
2022-10-09T10:52:36.146Z,99.90
2022-10-09T10:55:26.765Z,99.90
2022-10-09T10:58:30.090Z,99.90
2022-10-09T11:01:08.628Z,98.70
2022-10-09T11:03:50.125Z,98.50
2022-10-09T11:06:34.104Z,97.40
2022-10-09T11:09:09.759Z,96.80
2022-10-09T11:12:08.258Z,96.50
2022-10-09T11:15:01.106Z,96.30
2022-10-09T11:17:36.995Z,96.00
2022-10-09T11:20:12.682Z,95.40
2022-10-09T11:22:47.127Z,95.50
2022-10-09T11:25:26.277Z,95.80
2022-10-09T11:28:01.813Z,94.80
2022-10-09T11:30:33.600Z,94.50
2022-10-09T11:33:30.612Z,93.70
2022-10-09T11:36:04.804Z,93.20
2022-10-09T11:38:59.350Z,92.80
2022-10-09T11:41:27.498Z,92.40
2022-10-09T11:44:18.303Z,91.30
2022-10-09T11:47:09.903Z,90.30
2022-10-09T11:50:07.675Z,89.80
2022-10-09T11:52:43.335Z,88.60
2022-10-09T11:55:21.243Z,87.10
2022-10-09T11:57:48.584Z,86.30
2022-10-09T12:00:16.853Z,83.90
2022-10-09T12:02:44.275Z,83.70
2022-10-09T12:05:44.938Z,82.00
2022-10-09T12:08:19.195Z,80.70
2022-10-09T12:11:00.069Z,79.80
2022-10-09T12:13:41.859Z,79.60
2022-10-09T12:16:29.287Z,78.80
2022-10-09T12:18:58.259Z,76.40
2022-10-09T12:21:29.055Z,75.40
2022-10-09T12:23:56.058Z,73.90
2022-10-09T12:26:24.877Z,74.90
2022-10-09T12:29:01.439Z,72.90
2022-10-09T12:31:33.167Z,73.10
2022-10-09T12:34:20.891Z,71.40
2022-10-09T12:36:47.704Z,69.90
2022-10-09T12:39:24.479Z,69.00
2022-10-09T12:41:55.087Z,70.00
2022-10-09T12:44:30.241Z,71.20
2022-10-09T12:47:06.233Z,71.10
2022-10-09T12:49:33.289Z,70.20
2022-10-09T12:52:01.369Z,68.10
2022-10-09T12:54:31.128Z,66.10
2022-10-09T12:56:59.560Z,65.00
2022-10-09T12:59:28.590Z,64.60
2022-10-09T13:01:59.891Z,65.40
2022-10-09T13:04:34.029Z,63.40
2022-10-09T13:07:06.717Z,62.50
2022-10-09T13:09:39.360Z,62.20
2022-10-09T13:12:22.655Z,61.10
2022-10-09T13:14:57.133Z,60.40
2022-10-09T13:17:37.540Z,59.70
2022-10-09T13:20:16.327Z,59.60
2022-10-09T13:22:55.172Z,58.60
2022-10-09T13:25:23.278Z,57.70
2022-10-09T13:27:50.418Z,57.10
2022-10-09T13:30:17.551Z,56.80
2022-10-09T13:32:44.539Z,55.90
2022-10-09T13:35:11.223Z,55.30
2022-10-09T13:37:37.979Z,54.30
2022-10-09T13:40:05.830Z,54.00
2022-10-09T13:42:36.966Z,53.60
2022-10-09T13:45:07.214Z,53.80
2022-10-09T13:47:34.018Z,53.60
2022-10-09T13:50:00.723Z,53.80
2022-10-09T13:52:27.468Z,54.30
2022-10-09T13:54:54.399Z,54.30
2022-10-09T13:57:21.122Z,54.10
2022-10-09T13:59:47.862Z,53.40
2022-10-09T14:02:14.639Z,53.20
2022-10-09T14:04:41.660Z,53.50
2022-10-09T14:07:08.510Z,53.20
2022-10-09T14:09:35.235Z,52.90
2022-10-09T14:12:02.008Z,52.40
2022-10-09T14:14:28.740Z,52.30
2022-10-09T14:16:55.465Z,52.50
2022-10-09T14:19:27.168Z,52.50
2022-10-09T14:21:55.194Z,52.60
2022-10-09T14:24:22.032Z,52.40
2022-10-09T14:26:51.661Z,52.20
2022-10-09T14:29:18.631Z,51.90
2022-10-09T14:31:45.684Z,51.90
2022-10-09T14:34:15.619Z,51.90
2022-10-09T14:36:42.426Z,51.50
2022-10-09T14:39:09.302Z,51.50
2022-10-09T14:41:37.895Z,51.20
2022-10-09T14:44:05.700Z,51.60
2022-10-09T14:46:37.636Z,51.20
2022-10-09T14:49:07.853Z,51.00
2022-10-09T14:51:37.296Z,50.30
2022-10-09T14:54:05.657Z,49.30
2022-10-09T14:56:32.483Z,48.60
2022-10-09T14:59:02.651Z,48.30
2022-10-09T15:01:29.681Z,48.40
2022-10-09T15:03:56.983Z,48.30
2022-10-09T15:06:24.206Z,48.00
2022-10-09T15:08:54.061Z,47.40
2022-10-09T15:11:20.774Z,47.40
2022-10-09T15:13:47.574Z,47.30
2022-10-09T15:16:16.543Z,47.30
2022-10-09T15:18:44.324Z,46.90
2022-10-09T15:21:13.447Z,47.40
2022-10-09T15:23:40.555Z,47.20
2022-10-09T15:26:08.335Z,47.30
2022-10-09T15:28:36.645Z,47.00
2022-10-09T15:31:05.821Z,47.10
2022-10-09T15:33:33.350Z,47.10
2022-10-09T15:36:00.332Z,47.20
2022-10-09T15:38:27.247Z,47.30
2022-10-09T15:40:55.987Z,47.50
2022-10-09T15:43:25.577Z,47.70
2022-10-09T15:45:54.162Z,47.60
2022-10-09T15:48:23.758Z,48.00
2022-10-09T15:50:53.467Z,48.40
2022-10-09T15:53:23.356Z,47.90
2022-10-09T15:55:52.831Z,48.30
2022-10-09T15:58:20.420Z,48.20
2022-10-09T16:00:49.969Z,48.50
2022-10-09T16:03:18.808Z,48.60
2022-10-09T16:05:48.768Z,48.80
2022-10-09T16:08:17.207Z,49.20
2022-10-09T16:10:49.377Z,49.40
2022-10-09T16:13:16.614Z,49.50
2022-10-09T16:15:44.916Z,49.80
2022-10-09T16:18:11.757Z,49.90
2022-10-09T16:20:39.308Z,50.10
2022-10-09T16:23:06.996Z,50.50
2022-10-09T16:25:33.910Z,50.40
2022-10-09T16:28:00.889Z,50.40
2022-10-09T16:30:28.258Z,51.20
2022-10-09T16:32:55.071Z,51.50
2022-10-09T16:35:22.493Z,51.90
2022-10-09T16:37:51.735Z,52.40
2022-10-09T16:40:18.492Z,52.80
2022-10-09T16:42:45.197Z,53.10
2022-10-09T16:45:11.949Z,53.30
2022-10-09T16:47:40.343Z,53.60
2022-10-09T16:50:07.828Z,53.90
2022-10-09T16:52:34.551Z,54.50
2022-10-09T16:55:01.680Z,55.00
2022-10-09T16:57:28.449Z,55.10
2022-10-09T16:59:55.194Z,55.10
2022-10-09T17:02:21.950Z,55.30
2022-10-09T17:04:48.631Z,55.40
2022-10-09T17:07:15.327Z,55.80
2022-10-09T17:09:42.963Z,56.20
2022-10-09T17:12:12.874Z,56.40
2022-10-09T17:14:40.678Z,56.40
2022-10-09T17:17:09.600Z,56.70
2022-10-09T17:19:36.817Z,57.00
2022-10-09T17:22:04.398Z,57.20
2022-10-09T17:24:31.581Z,57.50
2022-10-09T17:26:59.089Z,57.50
2022-10-09T17:29:26.101Z,57.90
2022-10-09T17:31:53.021Z,58.20
2022-10-09T17:34:19.739Z,58.10
2022-10-09T17:36:46.643Z,58.30
2022-10-09T17:39:15.856Z,58.40
2022-10-09T17:41:45.719Z,58.50
2022-10-09T17:44:13.018Z,58.80
2022-10-09T17:46:39.729Z,58.90
2022-10-09T17:49:06.478Z,59.10
2022-10-09T17:51:39.587Z,59.20
2022-10-09T17:54:12.081Z,59.30
2022-10-09T17:56:39.363Z,59.30
2022-10-09T17:59:07.194Z,59.50
2022-10-09T18:01:34.114Z,59.70
2022-10-09T18:04:01.335Z,59.90
2022-10-09T18:06:31.704Z,60.00
2022-10-09T18:08:58.466Z,60.00
2022-10-09T18:11:26.879Z,60.20
2022-10-09T18:13:54.393Z,61.60
2022-10-09T18:16:35.272Z,60.60
2022-10-09T18:19:11.185Z,60.90
2022-10-09T18:21:44.744Z,61.30
2022-10-09T18:24:12.430Z,61.80
2022-10-09T18:26:40.030Z,62.00
2022-10-09T18:29:07.124Z,62.30
2022-10-09T18:31:34.490Z,62.50
2022-10-09T18:34:01.646Z,62.80
2022-10-09T18:36:31.684Z,63.00
2022-10-09T18:39:02.703Z,63.30
2022-10-09T18:41:29.614Z,63.60
2022-10-09T18:43:59.854Z,63.50
2022-10-09T18:46:29.770Z,64.00
2022-10-09T18:48:56.683Z,64.40
2022-10-09T18:51:26.820Z,64.80
2022-10-09T18:53:58.035Z,65.10
2022-10-09T18:56:25.107Z,65.60
2022-10-09T18:58:53.045Z,66.20
2022-10-09T19:01:20.169Z,66.30
2022-10-09T19:03:49.970Z,66.40
2022-10-09T19:06:19.217Z,66.60
2022-10-09T19:08:46.310Z,66.90
2022-10-09T19:11:14.401Z,67.30
2022-10-09T19:13:43.042Z,67.80
2022-10-09T19:16:10.502Z,68.10
2022-10-09T19:18:37.982Z,68.40
2022-10-09T19:21:04.949Z,68.90
2022-10-09T19:23:32.031Z,69.50
2022-10-09T19:25:59.806Z,70.00
2022-10-09T19:28:30.936Z,70.20
2022-10-09T19:30:57.918Z,70.40
2022-10-09T19:33:25.097Z,70.70
2022-10-09T19:35:54.022Z,71.00
2022-10-09T19:38:21.800Z,71.50
2022-10-09T19:40:49.339Z,71.90
2022-10-09T19:43:17.631Z,72.20
2022-10-09T19:45:44.946Z,72.60
2022-10-09T19:48:11.900Z,72.90
2022-10-09T19:50:43.154Z,74.40
2022-10-09T19:53:10.876Z,74.70
2022-10-09T19:55:38.765Z,74.90
2022-10-09T19:58:06.598Z,75.40
2022-10-09T20:00:33.362Z,75.10
2022-10-09T20:03:00.198Z,75.70
2022-10-09T20:05:27.051Z,76.10
2022-10-09T20:07:53.798Z,76.10
2022-10-09T20:10:20.517Z,76.50
2022-10-09T20:12:47.522Z,76.90
2022-10-09T20:15:14.619Z,77.10
2022-10-09T20:17:41.472Z,77.50
2022-10-09T20:20:08.674Z,77.80
2022-10-09T20:22:35.374Z,78.10
2022-10-09T20:25:02.313Z,77.70
2022-10-09T20:27:30.419Z,78.20
2022-10-09T20:29:57.260Z,77.80
2022-10-09T20:32:26.884Z,78.00
2022-10-09T20:34:53.810Z,78.20
2022-10-09T20:37:20.574Z,78.20
2022-10-09T20:39:47.404Z,78.20
2022-10-09T20:42:14.242Z,78.40
2022-10-09T20:44:42.360Z,78.70
2022-10-09T20:47:09.237Z,78.80
2022-10-09T20:49:35.958Z,78.40
2022-10-09T20:52:02.774Z,78.80
2022-10-09T20:54:30.387Z,78.90
2022-10-09T20:56:57.264Z,78.70
2022-10-09T20:59:24.101Z,79.00
2022-10-09T21:01:50.859Z,79.40
2022-10-09T21:04:17.609Z,79.30
2022-10-09T21:06:44.448Z,79.30
2022-10-09T21:09:11.224Z,79.90
2022-10-09T21:11:39.855Z,79.80
2022-10-09T21:14:07.077Z,79.80
2022-10-09T21:16:33.943Z,80.10
2022-10-09T21:19:03.645Z,81.30
2022-10-09T21:21:31.196Z,80.60
2022-10-09T21:23:59.187Z,81.20
2022-10-09T21:26:27.145Z,81.10
2022-10-09T21:28:59.000Z,81.20
2022-10-09T21:31:28.890Z,81.00
2022-10-09T21:33:56.606Z,81.70
2022-10-09T21:39:32.738Z,82.20
2022-10-09T21:41:59.607Z,82.50
2022-10-09T21:44:26.397Z,82.00
2022-10-09T21:46:53.091Z,81.90
2022-10-09T21:49:22.993Z,82.20
2022-10-09T21:51:50.595Z,82.80
2022-10-09T21:54:17.601Z,83.20
2022-10-09T21:56:44.624Z,83.70
2022-10-09T21:59:11.385Z,84.10
2022-10-09T22:01:38.679Z,84.00
2022-10-09T22:04:05.475Z,84.20
2022-10-09T22:06:32.236Z,84.50
2022-10-09T22:08:59.874Z,84.50
2022-10-09T22:11:26.660Z,85.10
2022-10-09T22:13:55.639Z,85.30
2022-10-09T22:16:22.473Z,84.90
2022-10-09T22:18:49.297Z,85.30
2022-10-09T22:21:16.838Z,85.30
2022-10-09T22:23:43.674Z,85.20
2022-10-09T22:26:14.216Z,85.80
2022-10-09T22:28:41.197Z,86.50
2022-10-09T22:31:20.941Z,87.70
2022-10-09T22:33:56.706Z,88.00
2022-10-09T22:36:26.225Z,87.70
2022-10-09T22:38:54.669Z,88.70
2022-10-09T22:41:23.342Z,89.00
2022-10-09T22:43:52.844Z,89.00
2022-10-09T22:46:28.558Z,88.30
2022-10-09T22:48:55.593Z,88.10
2022-10-09T22:51:24.114Z,88.20
2022-10-09T22:53:50.898Z,88.30
2022-10-09T22:56:23.533Z,88.60
2022-10-09T22:58:52.937Z,88.80
2022-10-09T23:01:30.276Z,89.20
2022-10-09T23:03:58.379Z,88.90
2022-10-09T23:06:25.368Z,89.00
2022-10-09T23:08:52.298Z,89.30
2022-10-09T23:11:21.364Z,89.70
2022-10-09T23:13:54.062Z,90.00
2022-10-09T23:16:21.228Z,90.20
2022-10-09T23:18:51.167Z,90.40
2022-10-09T23:21:22.971Z,90.50
2022-10-09T23:23:50.766Z,90.60
2022-10-09T23:26:20.816Z,90.50
2022-10-09T23:28:52.579Z,90.60
2022-10-09T23:31:19.432Z,90.80
2022-10-09T23:33:46.373Z,90.80
2022-10-09T23:36:16.648Z,91.00
2022-10-09T23:38:44.025Z,91.10
2022-10-09T23:41:16.930Z,91.20
2022-10-09T23:43:44.318Z,91.30
2022-10-09T23:46:14.348Z,91.20
2022-10-09T23:48:41.546Z,91.30
2022-10-09T23:51:08.814Z,91.30
2022-10-09T23:53:35.863Z,91.40
2022-10-09T23:56:24.459Z,91.40
2022-10-09T23:58:51.832Z,91.60
